createdAt,value
2019-04-28T00:04:00.000Z,98556
2019-04-28T00:09:00.000Z,98552
2019-04-28T00:14:00.000Z,98563
2019-04-28T00:19:00.000Z,98571
2019-04-28T00:24:00.000Z,98564
2019-04-28T00:29:00.000Z,98554
2019-04-28T00:34:00.000Z,98552
2019-04-28T00:39:00.000Z,98557
2019-04-28T00:44:00.000Z,98571
2019-04-28T00:49:00.000Z,98568
2019-04-28T00:54:00.000Z,98581
2019-04-28T00:59:00.000Z,98584
2019-04-28T01:04:00.000Z,98589
2019-04-28T01:10:00.000Z,98573
2019-04-28T01:15:00.000Z,98600
2019-04-28T01:20:00.000Z,98588
2019-04-28T01:25:00.000Z,98596
2019-04-28T01:30:00.000Z,98591
2019-04-28T01:35:00.000Z,98604
2019-04-28T01:40:00.000Z,98593
2019-04-28T01:45:00.000Z,98604
2019-04-28T01:50:00.000Z,98598
2019-04-28T01:55:00.000Z,98612
2019-04-28T02:00:00.000Z,98629
2019-04-28T02:05:00.000Z,98635
2019-04-28T02:10:00.000Z,98646
2019-04-28T02:15:00.000Z,98650
2019-04-28T02:20:00.000Z,98649
2019-04-28T02:25:00.000Z,98647
2019-04-28T02:30:00.000Z,98640
2019-04-28T02:35:00.000Z,98664
2019-04-28T02:40:00.000Z,98661
2019-04-28T02:45:00.000Z,98645
2019-04-28T02:50:00.000Z,98662
2019-04-28T02:55:00.000Z,98670
2019-04-28T03:00:00.000Z,98678
2019-04-28T03:06:00.000Z,98673
2019-04-28T03:11:00.000Z,98684
2019-04-28T03:16:00.000Z,98680
2019-04-28T03:21:00.000Z,98692
2019-04-28T03:26:00.000Z,98695
2019-04-28T03:31:00.000Z,98689
2019-04-28T03:37:00.000Z,98704
2019-04-28T03:42:00.000Z,98699
2019-04-28T03:47:00.000Z,98712
2019-04-28T03:52:00.000Z,98705
2019-04-28T03:57:00.000Z,98710
2019-04-28T04:02:00.000Z,98707
2019-04-28T04:07:00.000Z,98733
2019-04-28T04:12:00.000Z,98743
2019-04-28T04:17:00.000Z,98737
2019-04-28T04:22:00.000Z,98740
2019-04-28T04:27:00.000Z,98741
2019-04-28T04:32:00.000Z,98748
2019-04-28T04:37:00.000Z,98743
2019-04-28T04:42:00.000Z,98759
2019-04-28T04:47:00.000Z,98760
2019-04-28T04:52:00.000Z,98766
2019-04-28T04:57:00.000Z,98758
2019-04-28T05:02:00.000Z,98758
2019-04-28T05:07:00.000Z,98793
2019-04-28T05:12:00.000Z,98792
2019-04-28T05:17:00.000Z,98794
2019-04-28T05:23:00.000Z,98790
2019-04-28T05:28:00.000Z,98802
2019-04-28T05:33:00.000Z,98801
2019-04-28T05:38:00.000Z,98798
2019-04-28T05:43:00.000Z,98794
2019-04-28T05:48:00.000Z,98783
2019-04-28T05:53:00.000Z,98804
2019-04-28T05:58:00.000Z,98808
2019-04-28T06:03:00.000Z,98800
2019-04-28T06:08:00.000Z,98799
2019-04-28T06:13:00.000Z,98797
2019-04-28T06:18:00.000Z,98799
2019-04-28T06:23:00.000Z,98802
2019-04-28T06:28:00.000Z,98811
2019-04-28T06:33:00.000Z,98818
2019-04-28T06:38:00.000Z,98814
2019-04-28T06:43:00.000Z,98804
2019-04-28T06:48:00.000Z,98796
2019-04-28T06:53:00.000Z,98796
2019-04-28T06:58:00.000Z,98814
2019-04-28T07:03:00.000Z,98808
2019-04-28T07:08:00.000Z,98819
2019-04-28T07:13:00.000Z,98828
2019-04-28T07:18:00.000Z,98822
2019-04-28T07:23:00.000Z,98809
2019-04-28T07:28:00.000Z,98826
2019-04-28T07:33:00.000Z,98822
2019-04-28T07:38:00.000Z,98840
2019-04-28T07:43:00.000Z,98834
2019-04-28T07:48:00.000Z,98835
2019-04-28T07:53:00.000Z,98852
2019-04-28T07:58:00.000Z,98835
2019-04-28T08:03:00.000Z,98825
2019-04-28T08:08:00.000Z,98835
2019-04-28T08:13:00.000Z,98846
2019-04-28T08:18:00.000Z,98832
2019-04-28T08:23:00.000Z,98832
2019-04-28T08:28:00.000Z,98834
2019-04-28T08:33:00.000Z,98851
2019-04-28T08:39:00.000Z,98856
2019-04-28T08:44:00.000Z,98859
2019-04-28T08:49:00.000Z,98872
2019-04-28T08:54:00.000Z,98872
2019-04-28T08:59:00.000Z,98876
2019-04-28T09:04:00.000Z,98884
2019-04-28T09:09:00.000Z,98865
2019-04-28T09:14:00.000Z,98885
2019-04-28T09:19:00.000Z,98863
2019-04-28T09:24:00.000Z,98871
2019-04-28T09:29:00.000Z,98860
2019-04-28T09:34:00.000Z,98865
2019-04-28T09:39:00.000Z,98884
2019-04-28T09:44:00.000Z,98866
2019-04-28T09:49:00.000Z,98855
2019-04-28T09:54:00.000Z,98853
2019-04-28T09:59:00.000Z,98840
2019-04-28T10:04:00.000Z,98847
2019-04-28T10:09:00.000Z,98861
2019-04-28T10:14:00.000Z,98858
2019-04-28T10:19:00.000Z,98850
2019-04-28T10:24:00.000Z,98856
2019-04-28T10:29:00.000Z,98855
2019-04-28T10:34:00.000Z,98844
2019-04-28T10:39:00.000Z,98833
2019-04-28T10:44:00.000Z,98841
2019-04-28T10:49:00.000Z,98839
2019-04-28T10:54:00.000Z,98843
2019-04-28T10:59:00.000Z,98825
2019-04-28T11:04:00.000Z,98835
2019-04-28T11:10:00.000Z,98826
2019-04-28T11:15:00.000Z,98817
2019-04-28T11:20:00.000Z,98817
2019-04-28T11:25:00.000Z,98804
2019-04-28T11:30:00.000Z,98801
2019-04-28T11:35:00.000Z,98793
2019-04-28T11:40:00.000Z,98799
2019-04-28T11:45:00.000Z,98795
2019-04-28T11:50:00.000Z,98788
2019-04-28T11:55:00.000Z,98786
2019-04-28T12:00:00.000Z,98790
2019-04-28T12:05:00.000Z,98793
2019-04-28T12:10:00.000Z,98788
2019-04-28T12:15:00.000Z,98770
2019-04-28T12:20:00.000Z,98765
2019-04-28T12:25:00.000Z,98759
2019-04-28T12:30:00.000Z,98756
2019-04-28T12:35:00.000Z,98770
2019-04-28T12:40:00.000Z,98754
2019-04-28T12:45:00.000Z,98752
2019-04-28T12:50:00.000Z,98738
2019-04-28T12:55:00.000Z,98741
2019-04-28T13:00:00.000Z,98743
2019-04-28T13:05:00.000Z,98734
2019-04-28T13:11:00.000Z,98718
2019-04-28T13:16:00.000Z,98718
2019-04-28T13:21:00.000Z,98711
2019-04-28T13:26:00.000Z,98705
2019-04-28T13:31:00.000Z,98700
2019-04-28T13:36:00.000Z,98692
2019-04-28T13:41:00.000Z,98705
2019-04-28T13:46:00.000Z,98705
2019-04-28T13:51:00.000Z,98713
2019-04-28T13:56:00.000Z,98709
2019-04-28T14:01:00.000Z,98702
2019-04-28T14:06:00.000Z,98690
2019-04-28T14:11:00.000Z,98680
2019-04-28T14:16:00.000Z,98681
2019-04-28T14:21:00.000Z,98682
2019-04-28T14:26:00.000Z,98659
2019-04-28T14:31:00.000Z,98661
2019-04-28T14:36:00.000Z,98652
2019-04-28T14:41:00.000Z,98663
2019-04-28T14:46:00.000Z,98664
2019-04-28T14:51:00.000Z,98662
2019-04-28T14:56:00.000Z,98663
2019-04-28T15:01:00.000Z,98646
2019-04-28T15:06:00.000Z,98652
2019-04-28T15:11:00.000Z,98659
2019-04-28T15:17:00.000Z,98666
2019-04-28T15:22:00.000Z,98649
2019-04-28T15:27:00.000Z,98656
2019-04-28T15:32:00.000Z,98668
2019-04-28T15:37:00.000Z,98664
2019-04-28T15:42:00.000Z,98652
2019-04-28T15:47:00.000Z,98656
2019-04-28T15:52:00.000Z,98656
2019-04-28T15:57:00.000Z,98652
2019-04-28T16:02:00.000Z,98648
2019-04-28T16:07:00.000Z,98633
2019-04-28T16:12:00.000Z,98639
2019-04-28T16:17:00.000Z,98647
2019-04-28T16:22:00.000Z,98661
2019-04-28T16:27:00.000Z,98663
2019-04-28T16:32:00.000Z,98680
2019-04-28T16:37:00.000Z,98690
2019-04-28T16:42:00.000Z,98683
2019-04-28T16:47:00.000Z,98683
2019-04-28T16:52:00.000Z,98688
2019-04-28T16:57:00.000Z,98693
2019-04-28T17:02:00.000Z,98685
2019-04-28T17:07:00.000Z,98685
2019-04-28T17:12:00.000Z,98695
2019-04-28T17:17:00.000Z,98698
2019-04-28T17:22:00.000Z,98703
2019-04-28T17:27:00.000Z,98706
2019-04-28T17:32:00.000Z,98709
2019-04-28T17:37:00.000Z,98712
2019-04-28T17:43:00.000Z,98712
2019-04-28T17:48:00.000Z,98713
2019-04-28T17:53:00.000Z,98720
2019-04-28T17:58:00.000Z,98724
2019-04-28T18:03:00.000Z,98733
2019-04-28T18:08:00.000Z,98726
2019-04-28T18:13:00.000Z,98737
2019-04-28T18:18:00.000Z,98739
2019-04-28T18:23:00.000Z,98748
2019-04-28T18:28:00.000Z,98757
2019-04-28T18:33:00.000Z,98766
2019-04-28T18:38:00.000Z,98766
2019-04-28T18:43:00.000Z,98770
2019-04-28T18:48:00.000Z,98779
2019-04-28T18:53:00.000Z,98782
2019-04-28T18:58:00.000Z,98785
2019-04-28T19:03:00.000Z,98790
2019-04-28T19:08:00.000Z,98788
2019-04-28T19:13:00.000Z,98803
2019-04-28T19:18:00.000Z,98808
2019-04-28T19:23:00.000Z,98807
2019-04-28T19:28:00.000Z,98802
2019-04-28T19:33:00.000Z,98813
2019-04-28T19:38:00.000Z,98802
2019-04-28T19:44:00.000Z,98798
2019-04-28T19:49:00.000Z,98809
2019-04-28T19:54:00.000Z,98807
2019-04-28T19:59:00.000Z,98815
2019-04-28T20:04:00.000Z,98807
2019-04-28T20:09:00.000Z,98802
2019-04-28T20:14:00.000Z,98802
2019-04-28T20:19:00.000Z,98797
2019-04-28T20:24:00.000Z,98803
2019-04-28T20:29:00.000Z,98807
2019-04-28T20:34:00.000Z,98795
2019-04-28T20:39:00.000Z,98793
2019-04-28T20:44:00.000Z,98796
2019-04-28T20:49:00.000Z,98788
2019-04-28T20:54:00.000Z,98796
2019-04-28T20:59:00.000Z,98796
2019-04-28T21:04:00.000Z,98790
2019-04-28T21:09:00.000Z,98797
2019-04-28T21:14:00.000Z,98790
2019-04-28T21:19:00.000Z,98785
2019-04-28T21:24:00.000Z,98778
2019-04-28T21:29:00.000Z,98784
2019-04-28T21:34:00.000Z,98785
2019-04-28T21:39:00.000Z,98787
2019-04-28T21:44:00.000Z,98781
2019-04-28T21:49:00.000Z,98774
2019-04-28T21:54:00.000Z,98793
2019-04-28T21:59:00.000Z,98790
2019-04-28T22:04:00.000Z,98774
2019-04-28T22:09:00.000Z,98771
2019-04-28T22:14:00.000Z,98771
2019-04-28T22:19:00.000Z,98767
2019-04-28T22:24:00.000Z,98767
2019-04-28T22:29:00.000Z,98771
2019-04-28T22:34:00.000Z,98764
2019-04-28T22:39:00.000Z,98772
2019-04-28T22:44:00.000Z,98769
2019-04-28T22:49:00.000Z,98768
2019-04-28T22:54:00.000Z,98775
2019-04-28T22:59:00.000Z,98763
2019-04-28T23:04:00.000Z,98759
2019-04-28T23:09:00.000Z,98746
2019-04-28T23:14:00.000Z,98750
2019-04-28T23:19:00.000Z,98755
2019-04-28T23:24:00.000Z,98748
2019-04-28T23:29:00.000Z,98737
2019-04-28T23:34:00.000Z,98735
2019-04-28T23:39:00.000Z,98740
2019-04-28T23:44:00.000Z,98734
2019-04-28T23:49:00.000Z,98739
2019-04-28T23:54:00.000Z,98716
2019-04-28T23:59:00.000Z,98721
